Time;durP1;ratioP1;P1;durP2;ratioP2;P2;SDS_P1;SDS_P2;PMS_P1;PMS_P2;Temp;Humidity;BMP_temperature;BMP_pressure;BME280_temperature;BME280_humidity;BME280_pressure;Samples;Min_cycle;Max_cycle;Signal;HPM_P1;HPM_P2
2022/10/23 00:01:18;;;;;;;57.22;24.25;;;;;;;16.45;100.00;98883.00;4316175;33;20032;-76
2022/10/23 00:03:45;;;;;;;51.20;23.40;;;;;;;16.71;100.00;98908.72;4279973;33;20041;-76
2022/10/23 00:06:13;;;;;;;52.50;25.83;;;;;;;16.45;100.00;98918.31;4281205;33;20054;-75
2022/10/23 00:08:40;;;;;;;44.88;22.90;;;;;;;16.43;100.00;98894.16;4280696;33;20045;-74
2022/10/23 00:11:11;;;;;;;44.40;21.40;;;;;;;16.17;100.00;98920.84;4276865;33;20429;-75
2022/10/23 00:13:38;;;;;;;50.88;23.27;;;;;;;16.54;100.00;98935.59;4251065;33;20115;-77
2022/10/23 00:16:04;;;;;;;53.08;24.08;;;;;;;16.47;100.00;98935.16;4266298;33;20026;-76
2022/10/23 00:18:32;;;;;;;49.03;23.75;;;;;;;16.56;100.00;98928.00;4295214;33;20075;-74
2022/10/23 00:20:58;;;;;;;47.90;24.73;;;;;;;16.48;100.00;98928.59;4284311;33;20033;-75
2022/10/23 00:23:25;;;;;;;42.78;22.48;;;;;;;16.44;100.00;98919.44;4293847;33;20034;-75
2022/10/23 00:25:51;;;;;;;47.62;23.30;;;;;;;16.25;100.00;98906.59;4292023;33;20036;-76
2022/10/23 00:28:25;;;;;;;41.13;21.90;;;;;;;16.42;100.00;98943.34;4293973;33;20049;-75
2022/10/23 00:30:52;;;;;;;42.58;23.38;;;;;;;16.29;100.00;98945.69;4295198;33;20049;-75
2022/10/23 00:33:18;;;;;;;42.17;22.90;;;;;;;16.42;100.00;98937.91;4295108;33;20041;-75
2022/10/23 00:35:45;;;;;;;41.90;22.83;;;;;;;16.20;100.00;98882.22;4292542;33;20080;-77
2022/10/23 00:38:12;;;;;;;41.67;23.10;;;;;;;16.22;100.00;98907.19;4304298;33;20168;-76
2022/10/23 00:40:39;;;;;;;40.90;20.27;;;;;;;16.70;100.00;98942.47;4324339;33;20058;-75
2022/10/23 00:43:06;;;;;;;42.47;21.17;;;;;;;15.71;100.00;98926.72;4323798;33;20113;-75
2022/10/23 00:45:33;;;;;;;44.83;22.60;;;;;;;16.18;100.00;98927.91;4323497;33;20040;-75
2022/10/23 00:48:01;;;;;;;40.63;22.25;;;;;;;16.47;100.00;98946.03;4320499;33;20044;-76
2022/10/23 00:50:30;;;;;;;43.70;24.67;;;;;;;16.49;100.00;98947.34;4337585;33;20519;-75
2022/10/23 00:53:01;;;;;;;39.53;22.45;;;;;;;16.39;100.00;98933.09;4337490;33;20056;-75
2022/10/23 00:55:29;;;;;;;45.38;22.95;;;;;;;16.53;100.00;98945.69;4325644;33;20352;-75
2022/10/23 00:57:55;;;;;;;50.80;22.75;;;;;;;16.28;100.00;98951.41;4322485;33;20045;-76
2022/10/23 01:00:25;;;;;;;43.78;22.83;;;;;;;16.03;100.00;98928.06;4321555;33;20040;-74
2022/10/23 01:02:53;;;;;;;57.60;24.67;;;;;;;16.24;100.00;98953.91;4323241;33;20046;-74
2022/10/23 01:05:29;;;;;;;44.80;23.33;;;;;;;16.36;100.00;98966.28;4324135;33;20024;-74
2022/10/23 01:07:58;;;;;;;43.08;22.15;;;;;;;16.29;100.00;98972.87;4322031;33;20464;-76
2022/10/23 01:10:35;;;;;;;46.67;21.67;;;;;;;15.84;100.00;98936.91;4324115;33;20892;-75
2022/10/23 01:13:12;;;;;;;46.58;22.98;;;;;;;16.02;100.00;98964.44;4321299;33;20044;-75
2022/10/23 01:15:48;;;;;;;49.65;22.65;;;;;;;16.08;100.00;98968.72;4321438;33;20370;-75
2022/10/23 01:18:30;;;;;;;34.58;19.27;;;;;;;16.37;100.00;98963.28;4323527;33;20106;-75
2022/10/23 01:21:12;;;;;;;40.75;21.85;;;;;;;16.14;100.00;98964.87;4320595;33;20040;-75
2022/10/23 01:23:49;;;;;;;40.67;21.25;;;;;;;16.13;100.00;98960.53;4295357;33;20063;-76
2022/10/23 01:26:44;;;;;;;50.03;22.90;;;;;;;15.88;100.00;98935.25;4329013;33;20072;-76
2022/10/23 01:29:39;;;;;;;41.58;22.45;;;;;;;16.08;100.00;98971.44;4337856;33;20113;-75
2022/10/23 01:32:10;;;;;;;40.25;21.10;;;;;;;16.16;100.00;98924.63;4338238;33;20079;-76
2022/10/23 01:34:46;;;;;;;45.65;19.85;;;;;;;16.20;100.00;98958.28;4336859;33;20052;-76
2022/10/23 01:37:19;;;;;;;53.28;21.77;;;;;;;15.82;100.00;98941.84;4338291;33;20056;-75
2022/10/23 01:39:59;;;;;;;42.95;21.77;;;;;;;16.08;100.00;98971.44;4316028;33;20406;-77
2022/10/23 01:42:32;;;;;;;38.47;21.30;;;;;;;16.05;100.00;98955.72;4308970;33;20085;-76
2022/10/23 01:45:08;;;;;;;39.45;21.08;;;;;;;16.17;100.00;98969.72;4308529;33;20041;-75
2022/10/23 01:47:36;;;;;;;42.30;20.45;;;;;;;16.12;100.00;98964.34;4308972;33;20116;-75
2022/10/23 01:50:06;;;;;;;35.95;18.37;;;;;;;15.88;100.00;98961.62;4307899;33;20045;-76
2022/10/23 01:52:33;;;;;;;37.80;20.12;;;;;;;15.80;100.00;98977.41;4307810;33;20049;-75
2022/10/23 01:55:03;;;;;;;48.13;21.77;;;;;;;16.29;100.00;98972.87;4309159;33;20067;-75
2022/10/23 01:57:31;;;;;;;35.25;18.85;;;;;;;16.01;100.00;98932.97;4291902;33;20474;-75
2022/10/23 02:00:08;;;;;;;39.63;20.23;;;;;;;16.06;100.00;98957.34;4278455;33;20037;-77
2022/10/23 02:02:40;;;;;;;39.05;21.73;;;;;;;16.14;100.00;98962.16;4292823;33;20033;-76
2022/10/23 02:05:30;;;;;;;36.38;19.42;;;;;;;16.33;100.00;98968.44;4307508;33;20053;-76
2022/10/23 02:07:59;;;;;;;47.78;21.00;;;;;;;16.41;100.00;98964.28;4306424;33;20345;-75
2022/10/23 02:10:42;;;;;;;40.80;20.98;;;;;;;16.23;100.00;98948.75;4309053;33;20085;-75
2022/10/23 02:13:21;;;;;;;38.22;19.35;;;;;;;16.40;100.00;98943.69;4304770;33;20366;-77
2022/10/23 02:15:54;;;;;;;40.33;21.05;;;;;;;16.28;100.00;98922.34;4309155;33;20363;-75
2022/10/23 02:18:31;;;;;;;45.72;22.37;;;;;;;15.86;100.00;98940.19;4307968;33;20060;-73
2022/10/23 02:21:21;;;;;;;47.38;21.55;;;;;;;16.46;100.00;98971.56;4306673;33;20040;-76
2022/10/23 02:24:11;;;;;;;39.90;20.60;;;;;;;16.04;100.00;98937.84;4304830;33;20058;-83
2022/10/23 02:26:51;;;;;;;47.70;20.40;;;;;;;16.11;100.00;98976.31;4307778;33;20029;-74
2022/10/23 02:29:42;;;;;;;42.03;21.17;;;;;;;16.10;100.00;98942.13;4283102;33;20131;-73
2022/10/23 02:32:10;;;;;;;46.63;20.33;;;;;;;16.38;100.00;98983.09;4282021;33;20037;-76
2022/10/23 02:34:36;;;;;;;41.70;20.48;;;;;;;16.01;100.00;98977.22;4269676;33;20880;-74
2022/10/23 02:37:03;;;;;;;38.30;19.92;;;;;;;16.16;100.00;98976.25;4268124;33;20042;-74
2022/10/23 02:39:29;;;;;;;34.90;20.48;;;;;;;16.20;100.00;98979.22;4267732;33;20042;-73
2022/10/23 02:42:06;;;;;;;43.90;22.00;;;;;;;16.04;100.00;98970.41;4267994;33;20084;-73
2022/10/23 02:44:53;;;;;;;38.97;21.37;;;;;;;16.28;100.00;98984.81;4266182;33;20043;-74
2022/10/23 02:47:54;;;;;;;39.53;21.17;;;;;;;16.52;100.00;98981.28;4267777;33;20037;-75
2022/10/23 02:50:45;;;;;;;41.83;22.20;;;;;;;15.96;100.00;98953.62;4267156;33;20072;-74
2022/10/23 02:53:28;;;;;;;45.90;21.87;;;;;;;16.23;100.00;98987.59;4264778;33;20075;-75
2022/10/23 02:56:06;;;;;;;52.88;21.90;;;;;;;16.11;100.00;98941.00;4265656;33;20060;-74
2022/10/23 02:58:45;;;;;;;54.97;22.80;;;;;;;16.10;100.00;98991.81;4252906;33;20042;-73
2022/10/23 03:01:19;;;;;;;55.35;23.35;;;;;;;16.03;100.00;98952.50;4291717;33;20051;-74
2022/10/23 03:03:55;;;;;;;49.00;22.25;;;;;;;16.45;100.00;98991.69;4309995;33;20398;-74
2022/10/23 03:06:23;;;;;;;43.17;22.45;;;;;;;16.30;100.00;98979.91;4312312;33;20389;-75
2022/10/23 03:08:53;;;;;;;42.92;21.60;;;;;;;16.40;100.00;98983.59;4311961;33;20074;-77
2022/10/23 03:11:20;;;;;;;48.15;23.52;;;;;;;16.39;100.00;98984.72;4296417;33;20071;-74
2022/10/23 03:13:46;;;;;;;44.22;21.90;;;;;;;16.00;100.00;98991.09;4295441;33;20041;-74
2022/10/23 03:16:13;;;;;;;48.67;21.83;;;;;;;15.70;100.00;98960.38;4294294;33;20034;-75
2022/10/23 03:18:39;;;;;;;45.28;22.35;;;;;;;16.14;100.00;99003.69;4289139;33;20420;-75
2022/10/23 03:21:07;;;;;;;51.45;23.67;;;;;;;16.03;100.00;98998.66;4282773;33;20051;-75
2022/10/23 03:23:34;;;;;;;46.97;24.08;;;;;;;15.76;100.00;99002.66;4295838;33;20061;-74
2022/10/23 03:26:00;;;;;;;52.62;24.23;;;;;;;15.76;100.00;98970.09;4296101;33;20059;-74
2022/10/23 03:28:27;;;;;;;50.55;24.87;;;;;;;15.49;100.00;98987.66;4295608;33;20180;-74
2022/10/23 03:30:54;;;;;;;55.38;24.05;;;;;;;15.61;100.00;98990.84;4295810;33;20345;-76
2022/10/23 03:33:21;;;;;;;55.15;24.10;;;;;;;15.80;100.00;99004.56;4294583;33;20033;-74
2022/10/23 03:35:48;;;;;;;47.45;24.33;;;;;;;15.83;100.00;98970.63;4295902;33;20423;-74
2022/10/23 03:38:15;;;;;;;55.40;25.98;;;;;;;15.72;100.00;98969.06;4296034;33;20063;-74
2022/10/23 03:40:42;;;;;;;50.80;24.17;;;;;;;15.80;100.00;99011.91;4295850;33;20045;-74
2022/10/23 03:43:08;;;;;;;47.58;24.75;;;;;;;15.56;100.00;99004.47;4302672;33;20029;-76
2022/10/23 03:45:38;;;;;;;60.28;25.95;;;;;;;15.52;100.00;98970.03;4310068;33;20064;-74
2022/10/23 03:48:05;;;;;;;57.40;26.02;;;;;;;15.74;100.00;99005.66;4308895;33;20058;-74
2022/10/23 03:50:34;;;;;;;52.22;26.48;;;;;;;15.28;100.00;98978.06;4310012;33;20041;-73
2022/10/23 03:53:01;;;;;;;46.72;24.87;;;;;;;15.72;100.00;98971.78;4307746;33;20052;-75
2022/10/23 03:55:27;;;;;;;49.10;25.90;;;;;;;15.56;100.00;98981.94;4307530;33;20375;-74
2022/10/23 03:57:54;;;;;;;53.80;25.55;;;;;;;15.78;100.00;98992.38;4309678;33;20124;-75
2022/10/23 04:00:21;;;;;;;53.67;27.23;;;;;;;15.58;100.00;98985.97;4308628;33;20065;-74
2022/10/23 04:02:48;;;;;;;56.67;26.27;;;;;;;16.02;100.00;99021.47;4309283;33;20426;-76
2022/10/23 04:05:15;;;;;;;61.55;27.17;;;;;;;15.80;100.00;99025.47;4308329;33;20036;-74
2022/10/23 04:07:43;;;;;;;52.25;26.48;;;;;;;15.78;100.00;99033.09;4309319;33;20040;-74
2022/10/23 04:10:10;;;;;;;52.65;26.92;;;;;;;16.09;100.00;99038.25;4309905;33;20550;-74
2022/10/23 04:12:36;;;;;;;63.97;28.70;;;;;;;15.67;100.00;98983.47;4308880;33;20083;-74
2022/10/23 04:15:03;;;;;;;81.10;27.87;;;;;;;16.03;100.00;99039.41;4306153;33;20075;-76
2022/10/23 04:17:29;;;;;;;80.62;27.27;;;;;;;15.93;100.00;99024.00;4309815;33;20071;-74
2022/10/23 04:19:56;;;;;;;75.37;27.35;;;;;;;15.85;100.00;99038.19;4310045;33;20092;-74
2022/10/23 04:22:22;;;;;;;80.07;26.80;;;;;;;14.94;100.00;98986.97;4309871;33;20044;-75
2022/10/23 04:24:49;;;;;;;80.45;26.60;;;;;;;15.57;100.00;99016.94;4310230;33;20449;-75
2022/10/23 04:27:16;;;;;;;81.43;24.40;;;;;;;15.60;100.00;99026.41;4298134;33;20073;-75
2022/10/23 04:29:42;;;;;;;61.22;25.40;;;;;;;15.66;100.00;99035.34;4296948;33;20432;-74
2022/10/23 04:32:09;;;;;;;57.90;24.52;;;;;;;15.63;100.00;99028.56;4297614;33;20092;-74
2022/10/23 04:34:35;;;;;;;50.65;21.60;;;;;;;15.55;100.00;98986.53;4308805;33;20182;-74
2022/10/23 04:37:02;;;;;;;56.70;24.67;;;;;;;15.77;100.00;99035.00;4310946;33;20418;-75
2022/10/23 04:39:29;;;;;;;59.30;23.42;;;;;;;15.58;100.00;98991.41;4309682;33;20094;-74
2022/10/23 04:41:55;;;;;;;49.55;23.77;;;;;;;15.81;100.00;99037.94;4311461;33;20070;-74
2022/10/23 04:44:24;;;;;;;52.20;24.00;;;;;;;15.74;100.00;98994.00;4310840;33;20048;-74
2022/10/23 04:46:50;;;;;;;56.03;23.80;;;;;;;15.80;100.00;98998.34;4310176;33;20385;-74
2022/10/23 04:49:17;;;;;;;53.28;24.15;;;;;;;15.74;100.00;99032.00;4305905;33;20103;-74
2022/10/23 04:51:44;;;;;;;50.97;22.80;;;;;;;16.19;100.00;99032.72;4309434;33;20074;-75
2022/10/23 04:54:12;;;;;;;48.75;22.00;;;;;;;15.97;100.00;99020.44;4308822;33;20036;-73
2022/10/23 04:56:39;;;;;;;56.08;23.23;;;;;;;15.58;100.00;99029.41;4309268;33;20052;-73
2022/10/23 04:59:06;;;;;;;63.00;23.15;;;;;;;15.57;100.00;99016.94;4300164;33;20080;-74
2022/10/23 05:01:34;;;;;;;70.85;25.37;;;;;;;15.81;100.00;99021.66;4308191;33;20029;-74
2022/10/23 05:04:03;;;;;;;64.28;23.27;;;;;;;15.58;100.00;99029.41;4309145;33;20059;-74
2022/10/23 05:06:30;;;;;;;52.20;24.65;;;;;;;15.42;100.00;98992.63;4308813;33;20044;-74
2022/10/23 05:08:58;;;;;;;61.28;25.30;;;;;;;15.97;100.00;99036.72;4308368;33;20037;-74
2022/10/23 05:11:25;;;;;;;65.55;25.83;;;;;;;15.44;100.00;98942.44;4306999;33;20100;-74
2022/10/23 05:13:52;;;;;;;63.25;25.10;;;;;;;15.94;100.00;99014.78;4308699;33;20138;-74
2022/10/23 05:16:30;;;;;;;69.93;24.40;;;;;;;15.73;100.00;99044.78;4309310;33;20062;-74
2022/10/23 05:18:58;;;;;;;67.60;26.50;;;;;;;15.82;100.00;99006.19;4308752;33;20053;-73
2022/10/23 05:21:29;;;;;;;58.35;25.83;;;;;;;16.17;100.00;99034.91;4309103;33;20045;-73
2022/10/23 05:23:59;;;;;;;59.50;23.75;;;;;;;15.82;100.00;99034.13;4310429;33;20422;-73
2022/10/23 05:26:25;;;;;;;62.38;24.55;;;;;;;15.44;100.00;99006.72;4322234;33;20036;-73
2022/10/23 05:28:52;;;;;;;55.70;23.95;;;;;;;15.65;100.00;99033.69;4336160;33;20037;-73
2022/10/23 05:31:24;;;;;;;73.25;25.30;;;;;;;16.01;100.00;99052.47;4335416;33;20057;-73
2022/10/23 05:33:55;;;;;;;61.65;24.20;;;;;;;16.06;100.00;99045.06;4337575;33;20382;-72
2022/10/23 05:36:24;;;;;;;62.75;24.08;;;;;;;15.85;100.00;99043.63;4338445;33;20028;-73
2022/10/23 05:38:53;;;;;;;66.12;24.37;;;;;;;16.06;100.00;99049.69;4335496;33;20432;-72
2022/10/23 05:41:20;;;;;;;57.85;23.90;;;;;;;16.08;100.00;99047.50;4320919;33;20036;-74
2022/10/23 05:43:47;;;;;;;65.07;26.40;;;;;;;15.95;100.00;99055.19;4323055;33;20066;-73
2022/10/23 05:46:15;;;;;;;62.83;23.75;;;;;;;16.27;100.00;99042.16;4321868;33;20457;-74
2022/10/23 05:48:42;;;;;;;50.35;23.27;;;;;;;15.70;100.00;99058.09;4329528;33;20044;-75
2022/10/23 05:51:11;;;;;;;57.95;23.65;;;;;;;16.26;100.00;99049.50;4321002;33;20060;-74
2022/10/23 05:53:38;;;;;;;58.13;22.48;;;;;;;16.02;100.00;99035.06;4322230;33;20454;-74
2022/10/23 05:56:06;;;;;;;53.83;21.12;;;;;;;15.94;100.00;99048.16;4323097;33;20048;-74
2022/10/23 05:58:34;;;;;;;53.95;22.08;;;;;;;15.83;100.00;99016.78;4293508;33;20067;-74
2022/10/23 06:01:06;;;;;;;49.65;23.30;;;;;;;16.21;100.00;99057.72;4264667;33;20490;-74
2022/10/23 06:03:36;;;;;;;43.83;23.27;;;;;;;15.92;100.00;99012.34;4265578;33;20518;-74
2022/10/23 06:06:06;;;;;;;37.53;19.45;;;;;;;16.03;100.00;99012.25;4267375;33;20030;-74
2022/10/23 06:08:34;;;;;;;48.63;21.08;;;;;;;15.80;100.00;99058.84;4268191;33;20149;-74
2022/10/23 06:11:09;;;;;;;41.08;21.08;;;;;;;15.73;100.00;99024.94;4265437;33;20042;-74
2022/10/23 06:13:37;;;;;;;45.47;21.37;;;;;;;16.44;100.00;99055.31;4267317;33;20050;-75
2022/10/23 06:16:12;;;;;;;43.75;20.48;;;;;;;16.19;100.00;99043.59;4267187;33;20464;-73
2022/10/23 06:18:39;;;;;;;45.63;19.30;;;;;;;15.92;100.00;99058.50;4268051;33;20026;-73
2022/10/23 06:21:07;;;;;;;51.90;20.60;;;;;;;15.53;100.00;99062.00;4266424;33;20077;-73
2022/10/23 06:23:36;;;;;;;55.35;22.15;;;;;;;15.29;100.00;99025.81;4296648;33;20037;-73
2022/10/23 06:26:05;;;;;;;49.00;21.02;;;;;;;15.93;100.00;99068.25;4297210;33;20217;-73
2022/10/23 06:28:33;;;;;;;38.85;19.80;;;;;;;15.59;100.00;99063.59;4268092;33;20383;-74
2022/10/23 06:31:06;;;;;;;47.72;20.25;;;;;;;15.62;100.00;99063.03;4280484;33;20034;-76
2022/10/23 06:33:33;;;;;;;43.92;17.48;;;;;;;15.93;100.00;99083.75;4267293;33;20091;-74
2022/10/23 06:36:04;;;;;;;42.95;16.48;;;;;;;14.98;100.00;99085.63;4265917;33;20103;-73
2022/10/23 06:38:36;;;;;;;29.37;13.35;;;;;;;15.47;100.00;99079.41;4268295;33;20096;-74
2022/10/23 06:41:03;;;;;;;26.75;12.77;;;;;;;14.85;100.00;99055.31;4266984;33;20034;-75
2022/10/23 06:43:31;;;;;;;27.95;12.37;;;;;;;15.00;100.00;99086.97;4266959;33;20104;-73
2022/10/23 06:46:12;;;;;;;21.60;12.20;;;;;;;15.36;100.00;99086.00;4266186;33;20186;-73
2022/10/23 06:48:41;;;;;;;25.48;13.50;;;;;;;14.89;100.00;99042.81;4263758;33;20050;-74
2022/10/23 06:51:10;;;;;;;22.95;11.32;;;;;;;14.93;100.00;99055.81;4265963;33;20062;-73
2022/10/23 06:53:38;;;;;;;20.83;11.63;;;;;;;14.46;100.00;99053.22;4271808;33;20034;-74
2022/10/23 06:56:07;;;;;;;20.60;11.68;;;;;;;14.96;100.00;99055.28;4279179;33;20068;-73
2022/10/23 06:58:35;;;;;;;17.62;11.18;;;;;;;15.22;100.00;99080.34;4274041;33;20066;-75
2022/10/23 07:01:04;;;;;;;24.90;13.57;;;;;;;15.14;100.00;99089.91;4293216;33;20051;-74
2022/10/23 07:03:31;;;;;;;22.60;12.10;;;;;;;15.64;100.00;99075.53;4293181;33;20064;-75
2022/10/23 07:06:02;;;;;;;24.27;12.55;;;;;;;15.24;100.00;99032.09;4293433;33;20050;-73
2022/10/23 07:08:28;;;;;;;32.65;14.60;;;;;;;15.20;100.00;99061.66;4280673;33;20448;-75
2022/10/23 07:10:55;;;;;;;26.50;14.18;;;;;;;15.33;100.00;99081.91;4293244;33;20111;-73
2022/10/23 07:13:23;;;;;;;27.55;14.20;;;;;;;15.28;100.00;99083.88;4293282;33;20041;-73
2022/10/23 07:15:50;;;;;;;34.58;16.70;;;;;;;15.38;100.00;99090.06;4294864;33;20048;-73
2022/10/23 07:18:18;;;;;;;23.02;11.20;;;;;;;15.26;100.00;99082.22;4287260;33;20514;-75
2022/10/23 07:20:50;;;;;;;22.95;12.18;;;;;;;14.62;100.00;99099.31;4282669;33;20221;-73
2022/10/23 07:23:24;;;;;;;27.40;13.10;;;;;;;14.57;100.00;99091.12;4281330;33;20421;-73
2022/10/23 07:25:51;;;;;;;31.10;14.52;;;;;;;15.18;100.00;99095.56;4296251;33;20079;-74
2022/10/23 07:28:23;;;;;;;29.65;12.88;;;;;;;14.94;100.00;99090.00;4312913;33;20053;-81
2022/10/23 07:30:56;;;;;;;34.83;14.35;;;;;;;15.02;100.00;99089.41;4325468;33;20107;-79
2022/10/23 07:33:26;;;;;;;30.65;14.40;;;;;;;14.99;100.00;99081.81;4323900;33;20387;-79
2022/10/23 07:35:56;;;;;;;29.48;13.43;;;;;;;15.03;100.00;99053.06;4323577;33;20382;-79
2022/10/23 07:38:23;;;;;;;30.23;13.73;;;;;;;15.00;100.00;99083.47;4324268;33;20032;-78
2022/10/23 07:40:50;;;;;;;32.20;16.15;;;;;;;15.04;100.00;99089.94;4325968;33;20071;-78
2022/10/23 07:43:19;;;;;;;31.50;14.38;;;;;;;15.06;100.00;99068.78;4323237;33;20040;-77
2022/10/23 07:45:48;;;;;;;27.25;14.15;;;;;;;15.95;100.00;99081.53;4324433;33;20549;-79
2022/10/23 07:48:17;;;;;;;24.60;13.90;;;;;;;15.54;100.00;99039.22;4322847;33;20134;-80
2022/10/23 07:50:45;;;;;;;26.70;14.00;;;;;;;15.25;100.00;99067.06;4310014;33;20090;-79
2022/10/23 07:53:17;;;;;;;25.45;12.95;;;;;;;15.55;100.00;99067.16;4307446;33;20071;-78
2022/10/23 07:55:55;;;;;;;27.52;13.65;;;;;;;15.69;100.00;99068.12;4303755;33;20062;-79
2022/10/23 07:58:24;;;;;;;31.35;14.32;;;;;;;15.55;100.00;99035.38;4303133;33;20066;-80
2022/10/23 08:00:57;;;;;;;25.85;13.27;;;;;;;15.88;100.00;99037.62;4288522;33;20185;-78
2022/10/23 08:03:25;;;;;;;23.65;13.43;;;;;;;15.91;100.00;98999.06;4295209;33;20071;-80
2022/10/23 08:05:54;;;;;;;22.48;13.48;;;;;;;16.34;100.00;99057.03;4293279;33;20478;-81
2022/10/23 08:08:22;;;;;;;21.42;12.07;;;;;;;16.16;100.00;99060.44;4292652;33;20044;-81
2022/10/23 08:10:54;;;;;;;29.10;14.05;;;;;;;15.96;100.00;99066.88;4295282;33;20390;-79
2022/10/23 08:13:23;;;;;;;24.77;14.40;;;;;;;16.13;100.00;99023.00;4293507;33;20173;-79
2022/10/23 08:15:52;;;;;;;21.48;11.43;;;;;;;16.26;100.00;99063.09;4294998;33;20100;-78
2022/10/23 08:18:21;;;;;;;25.85;15.38;;;;;;;15.45;100.00;99073.47;4291115;33;20048;-79
2022/10/23 08:20:51;;;;;;;30.62;16.20;;;;;;;15.76;100.00;99037.94;4291410;33;20074;-79
2022/10/23 08:23:24;;;;;;;26.87;15.32;;;;;;;16.17;100.00;99072.94;4281307;33;20059;-77
2022/10/23 08:26:05;;;;;;;26.70;14.00;;;;;;;15.61;100.00;99072.25;4281551;33;20057;-78
2022/10/23 08:28:35;;;;;;;22.80;14.05;;;;;;;15.80;100.00;99079.78;4281950;33;20470;-80
2022/10/23 08:31:14;;;;;;;26.48;16.37;;;;;;;15.78;100.00;99081.97;4283738;33;20067;-77
2022/10/23 08:33:47;;;;;;;27.85;16.85;;;;;;;15.69;100.00;99083.62;4295290;33;20037;-77
2022/10/23 08:36:27;;;;;;;31.50;14.87;;;;;;;15.44;100.00;99071.81;4296051;33;20424;-77
2022/10/23 08:39:03;;;;;;;23.40;13.30;;;;;;;15.22;100.00;99083.91;4287071;33;20030;-86
2022/10/23 08:41:58;;;;;;;24.67;15.25;;;;;;;14.77;100.00;99091.09;4289771;33;20041;-80
2022/10/23 08:45:04;;;;;;;24.40;14.52;;;;;;;14.85;100.00;99081.59;4286134;33;20038;-89
2022/10/23 08:47:42;;;;;;;26.67;16.55;;;;;;;14.60;100.00;99101.44;4267134;33;20033;-79
2022/10/23 08:50:33;;;;;;;35.60;16.75;;;;;;;15.25;100.00;99077.09;4290867;33;20033;-85
2022/10/23 08:53:04;;;;;;;26.27;15.48;;;;;;;15.50;100.00;99087.00;4295460;33;20053;-78
2022/10/23 08:55:37;;;;;;;32.88;16.73;;;;;;;15.48;100.00;99108.16;4309308;33;20036;-79
2022/10/23 08:58:07;;;;;;;30.90;16.62;;;;;;;15.49;100.00;99108.97;4315824;33;20481;-80
2022/10/23 09:00:34;;;;;;;31.15;17.05;;;;;;;15.84;100.00;99112.59;4312500;33;20045;-79
2022/10/23 09:03:03;;;;;;;31.80;17.62;;;;;;;15.72;100.00;99102.06;4321641;33;20064;-80
2022/10/23 09:05:49;;;;;;;27.42;16.20;;;;;;;15.43;100.00;99062.09;4320275;33;20052;-81
2022/10/23 09:08:18;;;;;;;30.40;15.75;;;;;;;15.82;100.00;99077.56;4320821;33;20094;-79
2022/10/23 09:11:37;;;;;;;25.50;15.30;;;;;;;15.54;100.00;99093.50;4302445;33;20367;-79
2022/10/23 09:14:29;;;;;;;26.35;15.95;;;;;;;15.52;100.00;99100.28;4287494;33;20061;-79
2022/10/23 09:17:16;;;;;;;22.85;14.68;;;;;;;15.07;100.00;99046.00;4299457;33;20067;-79
2022/10/23 09:19:44;;;;;;;25.20;16.55;;;;;;;15.61;100.00;99110.25;4294223;33;20071;-78
2022/10/23 09:22:12;;;;;;;25.08;14.90;;;;;;;15.51;100.00;99115.75;4293219;33;20450;-83
2022/10/23 09:24:42;;;;;;;31.15;15.43;;;;;;;16.03;100.00;99112.72;4293820;33;20045;-80
2022/10/23 09:27:15;;;;;;;21.33;14.07;;;;;;;16.22;100.00;99113.62;4294048;33;20033;-81
2022/10/23 09:29:54;;;;;;;25.90;14.77;;;;;;;15.89;100.00;99121.53;4293548;33;20070;-80
2022/10/23 09:32:37;;;;;;;22.87;13.52;;;;;;;15.36;100.00;99118.53;4293318;33;20049;-80
2022/10/23 09:35:05;;;;;;;21.67;14.30;;;;;;;15.49;100.00;99131.47;4268680;33;20486;-81
2022/10/23 09:37:34;;;;;;;24.33;13.93;;;;;;;15.77;100.00;99129.19;4278163;33;20165;-79
2022/10/23 09:40:04;;;;;;;29.37;14.18;;;;;;;15.62;100.00;99090.19;4279922;33;20050;-79
2022/10/23 09:42:30;;;;;;;23.60;13.85;;;;;;;15.68;100.00;99093.66;4304966;33;20119;-80
2022/10/23 09:44:57;;;;;;;23.75;13.15;;;;;;;16.13;100.00;99061.03;4323111;33;20112;-82
2022/10/23 09:47:24;;;;;;;21.48;12.48;;;;;;;15.37;100.00;99071.34;4310520;33;20066;-80
2022/10/23 09:49:55;;;;;;;26.15;13.55;;;;;;;16.32;100.00;99129.03;4309257;33;20071;-80
2022/10/23 09:52:28;;;;;;;20.73;12.53;;;;;;;16.41;100.00;99088.50;4313247;33;20045;-80
2022/10/23 09:54:59;;;;;;;23.95;13.82;;;;;;;15.86;100.00;99108.50;4313619;33;20196;-80
2022/10/23 09:57:37;;;;;;;19.70;11.90;;;;;;;15.82;100.00;99121.00;4313533;33;20055;-82
2022/10/23 10:00:12;;;;;;;18.95;10.93;;;;;;;16.26;100.00;99084.81;4314001;33;20309;-80
2022/10/23 10:02:41;;;;;;;18.35;13.18;;;;;;;15.57;100.00;99120.06;4312967;33;20037;-79
2022/10/23 10:05:34;;;;;;;18.98;12.00;;;;;;;16.24;100.00;99040.84;4314070;33;20066;-80
2022/10/23 10:08:20;;;;;;;20.42;11.20;;;;;;;17.18;100.00;99112.13;4313688;33;20037;-80
2022/10/23 10:10:51;;;;;;;22.00;11.32;;;;;;;16.03;100.00;99088.28;4314434;33;20087;-79
2022/10/23 10:13:35;;;;;;;19.95;12.18;;;;;;;15.97;100.00;99098.34;4311934;33;20058;-82
2022/10/23 10:16:32;;;;;;;16.70;10.60;;;;;;;16.86;100.00;99110.88;4312844;33;20074;-80
2022/10/23 10:19:01;;;;;;;20.95;10.73;;;;;;;16.05;100.00;99086.09;4313954;33;20226;-79
2022/10/23 10:22:07;;;;;;;19.10;12.30;;;;;;;16.12;100.00;99119.19;4313941;33;20049;-79
2022/10/23 10:25:14;;;;;;;14.73;9.18;;;;;;;16.73;100.00;99111.53;4311914;33;20117;-80
2022/10/23 10:27:45;;;;;;;15.85;10.00;;;;;;;16.07;100.00;99116.50;4312935;33;20057;-80
2022/10/23 10:30:14;;;;;;;19.67;10.38;;;;;;;15.83;100.00;99111.78;4312567;33;20044;-81
2022/10/23 10:32:59;;;;;;;16.77;10.70;;;;;;;16.17;100.00;99083.81;4313446;33;20060;-81
2022/10/23 10:35:56;;;;;;;22.58;10.52;;;;;;;16.16;100.00;99129.19;4324810;33;20044;-80
2022/10/23 10:38:49;;;;;;;23.38;10.77;;;;;;;16.29;100.00;99124.16;4300678;33;20115;-86
2022/10/23 10:41:15;;;;;;;18.92;10.80;;;;;;;15.59;100.00;99117.87;4325715;33;20032;-81
2022/10/23 10:43:57;;;;;;;17.05;10.85;;;;;;;15.55;100.00;99127.66;4324995;33;20189;-80
2022/10/23 10:46:43;;;;;;;20.15;11.43;;;;;;;16.30;100.00;99121.16;4324389;33;20101;-80
2022/10/23 10:49:15;;;;;;;19.33;11.20;;;;;;;15.75;100.00;99134.06;4324252;33;20057;-79
2022/10/23 10:51:58;;;;;;;23.95;11.77;;;;;;;15.52;100.00;99114.66;4325887;33;20028;-81
2022/10/23 10:54:37;;;;;;;17.63;11.00;;;;;;;16.05;100.00;99113.25;4323905;33;20065;-80
2022/10/23 10:57:15;;;;;;;18.23;10.68;;;;;;;16.14;100.00;99096.03;4324790;33;20141;-78
2022/10/23 10:59:45;;;;;;;26.10;10.63;;;;;;;16.11;100.00;99095.81;4323882;33;20050;-85
2022/10/23 11:02:25;;;;;;;17.90;11.38;;;;;;;16.29;100.00;99127.72;4310148;33;20788;-80
2022/10/23 11:05:03;;;;;;;14.77;10.07;;;;;;;16.46;100.00;99099.31;4311483;33;20044;-81
2022/10/23 11:07:39;;;;;;;19.77;9.68;;;;;;;16.41;100.00;99129.25;4295430;33;20453;-83
2022/10/23 11:10:16;;;;;;;21.58;11.27;;;;;;;16.49;100.00;99120.47;4310175;33;20095;-82
2022/10/23 11:12:45;;;;;;;19.87;10.85;;;;;;;16.66;100.00;99109.16;4309251;33;20347;-83
2022/10/23 11:15:15;;;;;;;20.88;10.45;;;;;;;15.94;100.00;99075.31;4309346;33;20172;-87
2022/10/23 11:17:49;;;;;;;24.55;10.95;;;;;;;16.88;100.00;99108.66;4310011;33;20048;-83
2022/10/23 11:20:44;;;;;;;23.65;13.48;;;;;;;16.47;100.00;99100.94;4310244;33;20439;-83
2022/10/23 11:23:45;;;;;;;17.45;10.20;;;;;;;17.20;100.00;99104.47;4308942;33;20045;-83
2022/10/23 11:26:50;;;;;;;21.17;10.13;;;;;;;17.10;100.00;99072.78;4309174;33;20048;-87
2022/10/23 11:29:39;;;;;;;17.58;9.82;;;;;;;17.59;100.00;99097.97;4293268;33;20065;-83
2022/10/23 11:32:15;;;;;;;17.40;10.40;;;;;;;17.26;100.00;99089.72;4309916;33;20048;-83
2022/10/23 11:34:57;;;;;;;14.98;9.68;;;;;;;16.92;100.00;99082.53;4299798;33;20112;-83